Time;durP1;ratioP1;P1;durP2;ratioP2;P2;SDS_P1;SDS_P2;PMS_P1;PMS_P2;Temp;Humidity;BMP_temperature;BMP_pressure;BME280_temperature;BME280_humidity;BME280_pressure;Samples;Min_cycle;Max_cycle;Signal;HPM_P1;HPM_P2
2021/05/27 00:00:58;;;;;;;15.02;9.35;;;10.90;86.80;;;;;;5059248;28;20403;-35
2021/05/27 00:03:24;;;;;;;10.82;9.23;;;10.80;86.80;;;;;;5094656;28;20058;-36
2021/05/27 00:05:50;;;;;;;15.32;10.77;;;10.80;86.90;;;;;;5093944;28;20032;-36
2021/05/27 00:08:15;;;;;;;17.05;8.73;;;10.80;86.60;;;;;;5094632;28;20403;-36
2021/05/27 00:10:41;;;;;;;13.20;9.00;;;10.80;86.80;;;;;;5076018;28;20024;-36
2021/05/27 00:13:07;;;;;;;13.10;9.95;;;10.90;86.70;;;;;;5093979;28;20031;-36
2021/05/27 00:15:32;;;;;;;13.23;10.05;;;10.80;86.60;;;;;;5094275;28;20134;-35
2021/05/27 00:17:59;;;;;;;13.35;9.68;;;10.90;86.30;;;;;;5093919;28;20024;-35
2021/05/27 00:20:25;;;;;;;16.00;9.15;;;10.90;86.40;;;;;;5094020;28;20059;-36
2021/05/27 00:22:51;;;;;;;21.27;10.13;;;10.90;86.20;;;;;;5093968;28;20028;-35
2021/05/27 00:25:17;;;;;;;13.93;8.50;;;10.90;86.10;;;;;;5094008;28;20024;-34
2021/05/27 00:27:44;;;;;;;10.18;8.82;;;10.90;86.10;;;;;;5093295;28;20032;-36
2021/05/27 00:30:10;;;;;;;15.35;10.20;;;10.90;86.20;;;;;;5075329;28;20024;-36
2021/05/27 00:32:37;;;;;;;11.32;8.30;;;11.00;86.10;;;;;;5093555;28;20020;-37
2021/05/27 00:35:04;;;;;;;13.45;10.13;;;10.90;86.30;;;;;;5094749;28;20020;-34
2021/05/27 00:37:29;;;;;;;14.07;9.35;;;10.90;86.30;;;;;;5076022;28;20479;-35
2021/05/27 00:39:55;;;;;;;17.85;9.75;;;10.90;86.30;;;;;;5093712;28;20027;-35
2021/05/27 00:42:21;;;;;;;16.20;11.30;;;10.80;86.60;;;;;;5093515;28;20464;-35
2021/05/27 00:45:08;;;;;;;12.40;10.40;;;10.90;86.40;;;;;;5093981;28;20024;-35
2021/05/27 00:47:34;;;;;;;16.83;10.48;;;10.90;86.70;;;;;;5080718;28;20043;-35
2021/05/27 00:50:01;;;;;;;14.55;10.80;;;10.80;86.90;;;;;;5093335;28;20016;-36
2021/05/27 00:52:26;;;;;;;17.30;11.07;;;10.80;87.30;;;;;;5075136;28;20024;-37
2021/05/27 00:54:53;;;;;;;16.40;11.23;;;10.80;87.70;;;;;;5093770;28;20021;-36
2021/05/27 00:57:36;;;;;;;14.07;11.63;;;10.80;87.40;;;;;;5078567;28;20106;-34
2021/05/27 01:00:11;;;;;;;15.75;11.35;;;10.80;87.40;;;;;;5078119;28;20047;-36
2021/05/27 01:02:36;;;;;;;16.15;12.35;;;10.80;87.70;;;;;;5096594;28;20475;-34
2021/05/27 01:05:05;;;;;;;17.25;12.98;;;10.80;87.00;;;;;;5096672;28;20020;-34
2021/05/27 01:07:31;;;;;;;18.25;13.43;;;10.80;87.30;;;;;;5078217;28;20066;-35
2021/05/27 01:09:56;;;;;;;18.30;14.32;;;10.80;87.60;;;;;;5096292;28;20090;-35
2021/05/27 01:12:22;;;;;;;16.15;13.98;;;10.70;87.80;;;;;;5096624;28;20030;-35
2021/05/27 01:17:35;;;;;;;19.50;15.07;;;10.70;88.10;;;;;;5096531;28;20363;-35
2021/05/27 01:20:00;;;;;;;19.45;16.38;;;10.70;88.20;;;;;;5095860;28;20388;-34
2021/05/27 01:22:26;;;;;;;23.55;16.00;;;10.70;88.00;;;;;;5096154;28;20042;-34
2021/05/27 01:24:52;;;;;;;28.10;19.30;;;10.70;88.50;;;;;;5096073;28;20078;-36
2021/05/27 01:27:18;;;;;;;29.17;19.52;;;10.70;88.60;;;;;;5095729;28;20028;-35
2021/05/27 01:29:51;;;;;;;32.35;20.80;;;10.60;89.10;;;;;;5096367;28;20024;-35
2021/05/27 01:32:17;;;;;;;29.67;21.60;;;10.50;89.40;;;;;;5096196;28;20099;-34
2021/05/27 01:34:42;;;;;;;33.58;24.50;;;10.60;89.50;;;;;;5095788;28;20059;-35
2021/05/27 01:37:08;;;;;;;44.45;25.55;;;10.50;90.10;;;;;;5095869;28;20059;-35
2021/05/27 01:39:33;;;;;;;37.63;23.33;;;10.50;90.00;;;;;;5095768;28;20062;-35
2021/05/27 01:41:59;;;;;;;34.90;23.02;;;10.50;90.20;;;;;;5095656;28;20063;-40
2021/05/27 01:44:25;;;;;;;35.67;24.25;;;10.50;90.40;;;;;;5095886;28;20031;-34
2021/05/27 01:46:50;;;;;;;42.33;25.95;;;10.50;90.40;;;;;;5096147;28;20471;-35
2021/05/27 01:49:16;;;;;;;37.75;25.83;;;10.50;90.70;;;;;;5095958;28;20020;-35
2021/05/27 01:51:49;;;;;;;43.75;26.13;;;10.40;91.00;;;;;;5095540;28;20495;-35
2021/05/27 01:54:15;;;;;;;40.90;25.17;;;10.40;91.40;;;;;;5095055;28;20028;-34
2021/05/27 01:56:41;;;;;;;46.33;27.48;;;10.40;91.50;;;;;;5076952;28;20078;-35
2021/05/27 01:59:07;;;;;;;42.33;28.83;;;10.30;91.80;;;;;;5095323;28;20099;-36
2021/05/27 02:01:32;;;;;;;43.15;27.27;;;10.30;91.70;;;;;;5095699;28;20125;-36
2021/05/27 02:03:58;;;;;;;41.67;28.65;;;10.30;92.00;;;;;;5095393;28;20024;-36
2021/05/27 02:06:24;;;;;;;45.97;29.52;;;10.30;91.90;;;;;;5076125;28;20016;-35
2021/05/27 02:11:53;;;;;;;45.08;29.38;;;10.40;92.10;;;;;;5095344;28;20031;-36
2021/05/27 02:14:19;;;;;;;34.55;22.70;;;10.30;92.30;;;;;;5095048;28;20031;-36
2021/05/27 02:16:46;;;;;;;41.75;24.10;;;10.30;91.70;;;;;;5094848;28;20024;-35
2021/05/27 02:19:12;;;;;;;36.55;23.42;;;10.40;91.70;;;;;;5095229;28;20474;-34
2021/05/27 02:21:38;;;;;;;33.90;21.23;;;10.30;91.50;;;;;;5094808;28;20093;-34
2021/05/27 02:24:06;;;;;;;28.42;17.85;;;10.30;91.00;;;;;;5094692;28;20480;-34
2021/05/27 02:26:31;;;;;;;30.20;19.75;;;10.30;91.20;;;;;;5076229;28;20361;-35
2021/05/27 02:29:00;;;;;;;32.42;19.92;;;10.30;91.40;;;;;;5076372;28;20027;-35
2021/05/27 02:31:26;;;;;;;31.60;19.92;;;10.30;91.30;;;;;;5095358;28;20099;-34
2021/05/27 02:33:52;;;;;;;31.00;19.45;;;10.30;90.90;;;;;;5094674;28;20070;-35
2021/05/27 02:36:18;;;;;;;30.00;17.52;;;10.30;91.10;;;;;;5094492;28;20070;-35
2021/05/27 02:38:44;;;;;;;33.10;18.92;;;10.40;90.80;;;;;;5094766;28;20476;-34
2021/05/27 02:41:10;;;;;;;24.90;18.60;;;10.30;90.10;;;;;;5094621;28;20492;-35
2021/05/27 02:43:36;;;;;;;37.25;20.45;;;10.30;90.90;;;;;;5094633;28;20059;-35
2021/05/27 02:46:02;;;;;;;28.33;17.98;;;10.30;91.00;;;;;;5094271;28;20491;-34
2021/05/27 02:48:31;;;;;;;26.90;17.63;;;10.30;90.70;;;;;;5094693;28;20468;-34
2021/05/27 02:50:58;;;;;;;31.65;17.92;;;10.30;90.70;;;;;;5094144;28;20016;-35
2021/05/27 02:53:24;;;;;;;35.25;15.60;;;10.20;90.90;;;;;;5094314;28;20074;-34
2021/05/27 02:55:51;;;;;;;44.05;18.08;;;10.20;90.90;;;;;;5094120;28;20440;-36
2021/05/27 02:58:17;;;;;;;29.77;17.92;;;10.20;90.30;;;;;;5094534;28;20024;-37
2021/05/27 03:00:42;;;;;;;26.40;16.95;;;10.20;90.80;;;;;;5094129;28;20078;-40
2021/05/27 03:03:08;;;;;;;29.75;15.65;;;10.20;90.60;;;;;;5095194;28;20016;-35
2021/05/27 03:05:34;;;;;;;27.42;13.63;;;10.20;91.20;;;;;;5094167;28;20035;-35
2021/05/27 03:08:00;;;;;;;29.63;15.40;;;10.10;90.80;;;;;;5076251;28;20141;-35
2021/05/27 03:10:26;;;;;;;21.17;13.75;;;10.10;91.10;;;;;;5094771;28;20047;-34
2021/05/27 03:12:51;;;;;;;26.30;13.80;;;10.00;91.20;;;;;;5093694;28;20020;-34
2021/05/27 03:15:17;;;;;;;27.92;14.88;;;10.00;91.10;;;;;;5093602;28;20406;-34
2021/05/27 03:17:43;;;;;;;29.40;14.25;;;10.00;91.00;;;;;;5094351;28;20068;-34
2021/05/27 03:20:10;;;;;;;23.98;14.38;;;10.00;91.20;;;;;;5093703;28;20032;-34
2021/05/27 03:22:36;;;;;;;22.38;11.65;;;9.90;91.40;;;;;;5093766;28;20028;-34
2021/05/27 03:25:02;;;;;;;30.70;13.40;;;9.80;91.50;;;;;;5093661;28;20483;-36
2021/05/27 03:27:31;;;;;;;25.50;14.77;;;9.90;91.60;;;;;;5093777;28;20070;-36
2021/05/27 03:29:56;;;;;;;25.80;13.35;;;9.90;91.90;;;;;;5093963;28;20107;-35
2021/05/27 03:32:22;;;;;;;27.25;13.93;;;10.00;91.70;;;;;;5093705;28;20490;-34
2021/05/27 03:34:47;;;;;;;25.25;13.65;;;9.90;91.80;;;;;;5093570;28;20062;-35
2021/05/27 03:37:13;;;;;;;22.83;12.40;;;9.80;91.50;;;;;;5093476;28;20042;-35
2021/05/27 03:39:39;;;;;;;18.15;12.63;;;9.90;91.50;;;;;;5075847;28;20135;-35
2021/05/27 03:42:05;;;;;;;25.05;13.75;;;9.80;91.80;;;;;;5093996;28;20028;-34
2021/05/27 03:44:31;;;;;;;27.70;13.52;;;9.80;92.00;;;;;;5094182;28;20509;-34
2021/05/27 03:46:56;;;;;;;29.83;12.82;;;9.80;92.10;;;;;;5075707;28;20012;-34
2021/05/27 03:49:22;;;;;;;22.50;12.27;;;9.80;92.30;;;;;;5093711;28;20055;-34
2021/05/27 03:51:48;;;;;;;26.08;12.50;;;9.90;91.60;;;;;;5093812;28;20028;-34
2021/05/27 03:54:13;;;;;;;25.90;13.30;;;9.80;91.90;;;;;;5093906;28;20476;-35
2021/05/27 03:56:39;;;;;;;21.27;12.70;;;9.80;91.80;;;;;;5093493;28;20048;-34
2021/05/27 04:01:49;;;;;;;18.50;10.82;;;9.80;91.90;;;;;;5093792;28;20082;-35
2021/05/27 04:07:15;;;;;;;19.33;11.23;;;9.70;91.80;;;;;;5059471;28;20511;-34
2021/05/27 04:09:42;;;;;;;20.83;12.13;;;9.70;91.80;;;;;;5075815;28;20020;-34
2021/05/27 04:17:38;;;;;;;25.05;12.30;;;9.70;92.10;;;;;;5093928;28;20058;-39
2021/05/27 04:20:05;;;;;;;24.50;12.00;;;9.70;92.10;;;;;;5093057;28;20021;-35
2021/05/27 04:22:31;;;;;;;28.73;12.35;;;9.60;92.10;;;;;;5092964;28;20430;-35
2021/05/27 04:24:57;;;;;;;29.13;12.45;;;9.70;91.90;;;;;;5092883;28;20081;-35
2021/05/27 04:27:23;;;;;;;22.85;12.13;;;9.50;92.20;;;;;;5093158;28;20017;-35
2021/05/27 04:29:52;;;;;;;18.77;10.32;;;9.60;92.30;;;;;;5075741;28;20035;-35
2021/05/27 04:35:01;;;;;;;19.33;10.23;;;9.60;92.20;;;;;;5074931;28;20031;-35
2021/05/27 04:37:27;;;;;;;16.80;9.60;;;9.40;92.40;;;;;;5097406;28;20020;-35
2021/05/27 04:39:53;;;;;;;19.35;10.20;;;9.50;92.50;;;;;;5096959;28;20051;-38
2021/05/27 04:42:18;;;;;;;17.10;8.68;;;9.50;92.20;;;;;;5097247;28;20032;-36
2021/05/27 04:44:44;;;;;;;15.38;8.48;;;9.50;92.10;;;;;;5097231;28;20028;-35
2021/05/27 04:47:09;;;;;;;22.73;9.30;;;9.40;92.30;;;;;;5097430;28;20016;-40
2021/05/27 04:49:35;;;;;;;13.98;8.95;;;9.30;92.20;;;;;;5097039;28;20020;-35
2021/05/27 04:52:00;;;;;;;18.50;11.25;;;9.30;92.30;;;;;;5097049;28;20020;-36
2021/05/27 04:54:26;;;;;;;21.15;9.20;;;9.40;92.30;;;;;;5095412;28;20435;-35
2021/05/27 04:56:52;;;;;;;14.02;9.77;;;9.40;92.60;;;;;;5096301;28;20095;-34
2021/05/27 04:59:17;;;;;;;16.83;9.50;;;9.40;92.70;;;;;;5097102;28;20028;-35
2021/05/27 05:01:44;;;;;;;20.05;10.20;;;9.30;92.50;;;;;;5097133;28;20121;-34
2021/05/27 05:04:10;;;;;;;18.08;9.18;;;9.30;92.80;;;;;;5096989;28;20020;-34
2021/05/27 05:06:35;;;;;;;16.95;9.35;;;9.40;92.40;;;;;;5095908;28;20124;-35
2021/05/27 05:09:02;;;;;;;14.57;8.73;;;9.30;92.60;;;;;;5097476;28;20027;-35
2021/05/27 05:11:28;;;;;;;14.55;8.18;;;9.40;92.60;;;;;;5096945;28;20016;-35
2021/05/27 05:13:54;;;;;;;16.77;8.00;;;9.40;92.30;;;;;;5096997;28;20024;-35
2021/05/27 05:16:20;;;;;;;19.63;9.93;;;9.30;92.20;;;;;;5096788;28;20023;-34
2021/05/27 05:18:45;;;;;;;18.30;10.75;;;9.30;92.40;;;;;;5096401;28;20479;-35
2021/05/27 05:21:11;;;;;;;24.23;9.43;;;9.30;92.90;;;;;;5096067;28;20035;-35
2021/05/27 05:23:37;;;;;;;16.05;10.23;;;9.30;92.80;;;;;;5095941;28;20081;-35
2021/05/27 05:26:02;;;;;;;19.40;9.25;;;9.30;92.40;;;;;;5095602;28;20067;-36
2021/05/27 05:28:28;;;;;;;19.60;10.40;;;9.30;92.20;;;;;;5095975;28;20106;-35
2021/05/27 05:30:53;;;;;;;22.92;11.35;;;9.40;92.20;;;;;;5096056;28;20082;-35
2021/05/27 05:33:19;;;;;;;21.23;10.65;;;9.40;92.40;;;;;;5096398;28;20126;-36
2021/05/27 05:35:45;;;;;;;20.42;11.18;;;9.40;92.50;;;;;;5096277;28;20452;-35
2021/05/27 05:38:11;;;;;;;23.35;13.15;;;9.40;92.30;;;;;;5095769;28;20095;-35
2021/05/27 05:40:36;;;;;;;24.27;14.48;;;9.40;92.40;;;;;;5095613;28;20031;-35
2021/05/27 05:43:03;;;;;;;28.85;15.00;;;9.40;92.70;;;;;;5095942;28;20098;-35
2021/05/27 05:45:28;;;;;;;24.33;16.05;;;9.50;92.30;;;;;;5096097;28;20398;-35
2021/05/27 05:47:54;;;;;;;27.67;15.50;;;9.60;92.00;;;;;;5095816;28;20020;-34
2021/05/27 05:53:08;;;;;;;28.67;15.63;;;9.50;92.20;;;;;;5095581;28;20499;-34
2021/05/27 05:55:34;;;;;;;28.65;15.88;;;9.70;92.30;;;;;;5094795;28;20500;-34
2021/05/27 05:58:00;;;;;;;28.55;14.95;;;9.70;91.80;;;;;;5095330;28;20071;-34
2021/05/27 06:00:26;;;;;;;36.08;19.38;;;9.70;91.70;;;;;;5095061;28;20039;-35
2021/05/27 06:02:51;;;;;;;28.15;16.50;;;9.70;92.20;;;;;;5094775;28;20031;-35
2021/05/27 06:05:17;;;;;;;26.08;16.30;;;9.70;92.20;;;;;;5093508;28;20024;-35
2021/05/27 06:07:43;;;;;;;23.20;14.70;;;9.70;92.30;;;;;;5095640;28;20103;-35
2021/05/27 06:10:09;;;;;;;21.90;14.30;;;9.60;92.20;;;;;;5093607;28;20016;-35
2021/05/27 06:12:35;;;;;;;20.10;14.55;;;9.60;92.20;;;;;;5095085;28;20016;-35
2021/05/27 06:15:00;;;;;;;22.58;14.63;;;9.70;92.20;;;;;;5095589;28;20031;-35
2021/05/27 06:17:26;;;;;;;23.02;13.43;;;9.70;92.20;;;;;;5095318;28;20028;-35
2021/05/27 06:19:52;;;;;;;21.60;14.70;;;9.70;92.10;;;;;;5094505;28;20034;-35
2021/05/27 06:22:17;;;;;;;28.60;15.73;;;9.70;91.70;;;;;;5094814;28;20102;-35
2021/05/27 06:24:43;;;;;;;29.05;15.32;;;9.70;91.90;;;;;;5094385;28;20441;-35
2021/05/27 06:27:09;;;;;;;31.35;15.43;;;9.70;92.40;;;;;;5094734;28;20036;-35
2021/05/27 06:29:34;;;;;;;28.40;15.73;;;9.80;92.00;;;;;;5093162;28;20044;-35
2021/05/27 06:32:00;;;;;;;27.90;16.90;;;9.70;91.80;;;;;;5092910;28;20024;-35
2021/05/27 06:34:25;;;;;;;23.73;14.05;;;9.80;91.90;;;;;;5094188;28;20024;-35
2021/05/27 06:36:52;;;;;;;33.25;16.27;;;9.80;92.10;;;;;;5094429;28;20464;-36
2021/05/27 06:39:17;;;;;;;29.13;15.98;;;9.80;91.70;;;;;;5094197;28;20027;-36
2021/05/27 06:41:43;;;;;;;29.60;14.82;;;9.80;92.10;;;;;;5094435;28;20028;-36
2021/05/27 06:44:09;;;;;;;27.25;16.48;;;9.80;91.40;;;;;;5093975;28;20020;-35
2021/05/27 06:46:34;;;;;;;29.38;16.30;;;9.80;91.90;;;;;;5093999;28;20024;-35
2021/05/27 06:49:00;;;;;;;22.35;14.95;;;9.70;92.00;;;;;;5093644;28;20028;-35
2021/05/27 06:51:26;;;;;;;26.63;15.95;;;9.80;91.80;;;;;;5094010;28;20020;-36
2021/05/27 06:53:52;;;;;;;29.73;17.35;;;9.80;91.80;;;;;;5093082;28;20031;-34
2021/05/27 06:56:18;;;;;;;32.03;17.85;;;9.80;91.90;;;;;;5093624;28;20500;-35
2021/05/27 06:58:44;;;;;;;25.58;13.80;;;9.80;91.60;;;;;;5093464;28;20035;-35
2021/05/27 07:01:14;;;;;;;24.40;15.15;;;9.80;91.50;;;;;;5092255;28;20471;-35
2021/05/27 07:03:39;;;;;;;31.17;16.37;;;9.80;91.40;;;;;;5092338;28;20028;-35
2021/05/27 07:06:06;;;;;;;26.25;13.90;;;9.80;91.60;;;;;;5093545;28;20027;-35
2021/05/27 07:08:32;;;;;;;27.75;15.88;;;9.90;91.50;;;;;;5093220;28;20025;-38
2021/05/27 07:10:58;;;;;;;25.50;15.90;;;9.80;91.70;;;;;;5093281;28;20016;-36
2021/05/27 07:13:23;;;;;;;25.02;15.07;;;9.80;91.70;;;;;;5094043;28;20459;-36
2021/05/27 07:15:49;;;;;;;27.35;15.13;;;9.90;91.60;;;;;;5092589;28;20035;-35
2021/05/27 07:18:15;;;;;;;27.90;14.65;;;9.80;91.10;;;;;;5094279;28;20406;-36
2021/05/27 07:20:42;;;;;;;25.88;15.10;;;9.90;91.20;;;;;;5093691;28;20102;-36
2021/05/27 07:23:09;;;;;;;20.45;12.98;;;9.80;91.60;;;;;;5093753;28;20032;-35
2021/05/27 07:25:35;;;;;;;21.13;14.55;;;10.00;91.20;;;;;;5093299;28;20109;-36
2021/05/27 07:28:02;;;;;;;27.17;14.68;;;10.00;91.30;;;;;;5093191;28;20016;-35
2021/05/27 07:30:28;;;;;;;25.30;16.73;;;9.90;91.20;;;;;;5093614;28;20051;-35
2021/05/27 07:32:56;;;;;;;23.90;15.65;;;10.00;91.10;;;;;;5093979;28;20104;-35
2021/05/27 07:35:23;;;;;;;33.40;17.58;;;10.00;91.90;;;;;;5093529;28;20468;-35
2021/05/27 07:37:48;;;;;;;31.45;17.80;;;10.00;91.50;;;;;;5093687;28;20486;-36
2021/05/27 07:40:14;;;;;;;33.45;17.95;;;10.10;91.40;;;;;;5093165;28;20157;-35
2021/05/27 07:42:40;;;;;;;31.02;16.67;;;10.10;91.40;;;;;;5092894;28;20020;-35
2021/05/27 07:45:07;;;;;;;30.15;17.65;;;10.00;91.20;;;;;;5091774;28;20077;-36
2021/05/27 07:47:34;;;;;;;33.92;18.13;;;10.00;91.20;;;;;;5092626;28;20047;-35
2021/05/27 07:50:00;;;;;;;27.23;16.65;;;10.00;91.20;;;;;;5092860;28;20055;-36
2021/05/27 07:52:27;;;;;;;24.00;15.20;;;9.90;91.10;;;;;;5093062;28;20081;-35
2021/05/27 07:54:53;;;;;;;23.83;14.02;;;9.80;91.00;;;;;;5093483;28;20024;-35
2021/05/27 07:57:19;;;;;;;26.13;16.73;;;9.80;91.10;;;;;;5093710;28;20031;-35
2021/05/27 07:59:45;;;;;;;28.67;17.58;;;9.90;91.40;;;;;;5093359;28;20082;-36
2021/05/27 08:02:11;;;;;;;28.95;16.00;;;9.90;91.70;;;;;;5093430;28;20035;-36
2021/05/27 08:04:39;;;;;;;31.58;18.10;;;9.90;91.70;;;;;;5095567;28;20024;-36
2021/05/27 08:07:05;;;;;;;32.63;17.90;;;9.80;92.20;;;;;;5097256;28;20483;-38
2021/05/27 08:09:30;;;;;;;27.25;18.13;;;9.80;91.80;;;;;;5097257;28;20050;-35
2021/05/27 08:11:56;;;;;;;28.30;16.92;;;9.80;92.30;;;;;;5097245;28;20016;-35
2021/05/27 08:14:22;;;;;;;26.50;15.73;;;9.80;92.30;;;;;;5097599;28;20077;-35
2021/05/27 08:16:47;;;;;;;26.65;16.90;;;9.80;92.20;;;;;;5097541;28;20016;-35
2021/05/27 08:19:13;;;;;;;27.65;16.42;;;9.80;92.40;;;;;;5095677;28;20024;-36
2021/05/27 08:21:39;;;;;;;24.42;14.95;;;9.80;92.30;;;;;;5096998;28;20024;-35
2021/05/27 08:24:05;;;;;;;23.77;14.55;;;9.80;92.00;;;;;;5096981;28;20016;-35
2021/05/27 08:26:31;;;;;;;23.77;14.82;;;10.00;91.60;;;;;;5096105;28;20099;-43
2021/05/27 08:28:56;;;;;;;29.00;16.17;;;10.00;91.70;;;;;;5096417;28;20503;-35
2021/05/27 08:31:22;;;;;;;26.05;14.68;;;9.90;92.20;;;;;;5096764;28;20099;-35
2021/05/27 08:33:49;;;;;;;27.50;16.33;;;10.00;91.80;;;;;;5097140;28;20028;-37
2021/05/27 08:36:16;;;;;;;25.45;13.73;;;10.10;92.10;;;;;;5097232;28;20414;-35
2021/05/27 08:38:42;;;;;;;26.63;13.95;;;10.00;91.60;;;;;;5095286;28;20082;-35
2021/05/27 08:41:09;;;;;;;25.45;14.88;;;10.00;91.80;;;;;;5096457;28;20028;-36
2021/05/27 08:43:35;;;;;;;22.63;12.23;;;9.90;91.90;;;;;;5094803;28;20024;-35
2021/05/27 08:46:02;;;;;;;24.60;13.07;;;9.90;91.60;;;;;;5096198;28;20028;-35
2021/05/27 08:48:28;;;;;;;22.77;13.35;;;10.00;91.50;;;;;;5095837;28;20016;-35
2021/05/27 08:50:54;;;;;;;16.60;11.60;;;10.00;91.20;;;;;;5096302;28;20020;-35
2021/05/27 08:53:20;;;;;;;20.80;12.38;;;10.00;91.70;;;;;;5096215;28;20058;-35
2021/05/27 08:55:47;;;;;;;19.45;12.02;;;9.90;92.10;;;;;;5095959;28;20048;-35
2021/05/27 08:58:15;;;;;;;29.23;13.93;;;10.10;91.40;;;;;;5096980;28;20028;-35
2021/05/27 09:00:41;;;;;;;19.83;11.73;;;10.10;91.20;;;;;;5096281;28;20020;-35
2021/05/27 09:03:09;;;;;;;20.52;12.65;;;10.20;91.40;;;;;;5096241;28;20016;-35
2021/05/27 09:05:37;;;;;;;19.60;11.13;;;10.20;90.90;;;;;;5096183;28;20410;-36
2021/05/27 09:08:06;;;;;;;17.50;10.40;;;10.20;91.50;;;;;;5096288;28;20046;-36
2021/05/27 09:10:43;;;;;;;21.23;10.90;;;10.20;90.90;;;;;;5096089;28;20483;-36
2021/05/27 09:13:14;;;;;;;17.40;10.63;;;10.20;91.00;;;;;;5096311;28;20020;-36
2021/05/27 09:15:40;;;;;;;22.20;12.05;;;10.10;91.40;;;;;;5093527;28;20108;-36
2021/05/27 09:18:06;;;;;;;20.20;11.30;;;10.10;91.60;;;;;;5095715;28;20028;-36
2021/05/27 09:20:32;;;;;;;20.00;11.07;;;10.20;91.70;;;;;;5095704;28;20145;-36
2021/05/27 09:23:07;;;;;;;20.70;10.65;;;10.20;91.70;;;;;;5096208;28;20080;-36
2021/05/27 09:25:35;;;;;;;14.82;9.68;;;10.20;91.50;;;;;;5096653;28;20028;-35
2021/05/27 09:28:02;;;;;;;15.32;10.15;;;10.10;91.50;;;;;;5095851;28;20036;-35
2021/05/27 09:30:27;;;;;;;17.48;9.18;;;10.20;91.40;;;;;;5095716;28;20024;-36
2021/05/27 09:32:53;;;;;;;14.18;9.70;;;10.30;91.00;;;;;;5099582;28;20376;-36
2021/05/27 09:35:20;;;;;;;13.65;8.80;;;10.30;90.90;;;;;;5095998;28;20384;-35
2021/05/27 09:37:52;;;;;;;19.73;9.23;;;10.40;90.40;;;;;;5095801;28;20361;-35
2021/05/27 09:40:31;;;;;;;18.25;8.48;;;10.40;91.20;;;;;;5093737;28;20528;-35
2021/05/27 09:42:59;;;;;;;19.33;9.95;;;10.40;90.60;;;;;;5094190;28;20028;-34
2021/05/27 09:45:25;;;;;;;13.57;7.75;;;10.50;90.50;;;;;;5096122;28;20036;-35
2021/05/27 09:47:51;;;;;;;10.00;6.88;;;10.40;90.10;;;;;;5094980;28;20063;-34
2021/05/27 09:50:17;;;;;;;12.43;6.88;;;10.40;90.20;;;;;;5096219;28;20024;-35
2021/05/27 09:52:48;;;;;;;13.27;7.35;;;10.40;90.70;;;;;;5094696;28;20020;-36
2021/05/27 09:55:15;;;;;;;;;;;10.40;90.40;;;;;;5095746;28;20043;-35
2021/05/27 09:57:43;;;;;;;15.30;7.10;;;10.40;90.60;;;;;;5095475;28;19952;-36
2021/05/27 10:00:27;;;;;;;14.98;7.85;;;10.60;90.50;;;;;;5095071;28;20028;-36
2021/05/27 10:02:54;;;;;;;9.40;5.82;;;10.50;90.60;;;;;;5095525;28;20036;-38
2021/05/27 10:05:20;;;;;;;14.45;6.10;;;10.40;90.00;;;;;;5095078;28;20039;-36
2021/05/27 10:07:46;;;;;;;10.43;6.03;;;10.40;90.20;;;;;;5094791;28;20024;-36
2021/05/27 10:10:20;;;;;;;14.25;7.25;;;10.30;90.20;;;;;;5094788;28;20031;-35
2021/05/27 10:12:50;;;;;;;17.13;7.20;;;10.30;90.50;;;;;;5094952;28;20099;-36
2021/05/27 10:15:19;;;;;;;12.35;6.80;;;10.30;90.80;;;;;;5095128;28;20028;-35
2021/05/27 10:17:46;;;;;;;8.88;5.38;;;10.40;90.30;;;;;;5094777;28;20032;-36
2021/05/27 10:20:17;;;;;;;11.30;5.78;;;10.30;90.50;;;;;;5094520;28;20028;-36
2021/05/27 10:22:44;;;;;;;11.77;5.82;;;10.40;90.40;;;;;;5094484;28;20120;-36
2021/05/27 10:25:12;;;;;;;13.75;6.25;;;10.30;90.90;;;;;;5093013;28;20512;-36
2021/05/27 10:27:39;;;;;;;12.27;6.32;;;10.40;90.40;;;;;;5093630;28;20131;-35
2021/05/27 10:30:08;;;;;;;13.05;5.80;;;10.40;90.30;;;;;;5094544;28;20460;-36
2021/05/27 10:32:38;;;;;;;8.57;4.68;;;10.30;90.20;;;;;;5094659;28;20024;-35
2021/05/27 10:35:04;;;;;;;;;;;10.50;89.40;;;;;;5095087;28;20082;-36
2021/05/27 10:37:39;;;;;;;10.70;5.25;;;10.50;89.10;;;;;;5094405;28;19904;-36
2021/05/27 10:40:22;;;;;;;11.80;5.30;;;10.60;89.50;;;;;;5095111;28;20032;-36
2021/05/27 10:42:57;;;;;;;14.38;5.60;;;10.60;89.80;;;;;;5094469;28;20028;-35
2021/05/27 10:45:28;;;;;;;15.82;5.93;;;10.50;89.70;;;;;;5094579;28;20058;-37
2021/05/27 10:48:13;;;;;;;10.93;5.72;;;10.60;90.00;;;;;;5093094;28;20048;-35
2021/05/27 10:53:41;;;;;;;11.23;5.88;;;10.70;89.60;;;;;;5094671;28;20097;-35
2021/05/27 10:56:08;;;;;;;13.45;6.22;;;10.80;89.50;;;;;;5092709;28;20499;-36
2021/05/27 10:58:49;;;;;;;11.65;5.93;;;10.80;89.90;;;;;;5094061;28;20035;-36
2021/05/27 11:01:15;;;;;;;;;;;10.60;90.20;;;;;;5094356;28;20028;-36
2021/05/27 11:03:54;;;;;;;18.65;7.03;;;10.50;90.20;;;;;;5093742;28;20014;-36
2021/05/27 11:06:21;;;;;;;9.27;5.30;;;10.70;89.90;;;;;;5093995;28;20532;-37
2021/05/27 11:08:47;;;;;;;7.60;4.90;;;10.80;89.10;;;;;;5094064;28;20432;-36
2021/05/27 11:11:40;;;;;;;10.02;5.32;;;10.80;89.20;;;;;;5094412;28;20472;-36
2021/05/27 11:14:35;;;;;;;9.80;6.07;;;10.80;89.20;;;;;;5093003;28;20020;-36
2021/05/27 11:22:29;;;;;;;13.63;6.90;;;10.80;90.40;;;;;;5093179;28;20065;-36
2021/05/27 11:27:35;;;;;;;12.30;6.35;;;10.70;90.40;;;;;;5093244;28;20020;-37
2021/05/27 11:30:22;;;;;;;12.10;6.22;;;10.60;90.80;;;;;;5092904;28;20031;-36
2021/05/27 11:33:03;;;;;;;11.43;6.30;;;10.70;89.90;;;;;;5092965;28;20051;-37
2021/05/27 11:35:41;;;;;;;20.70;7.25;;;10.60;89.80;;;;;;5092790;28;20024;-37
2021/05/27 11:38:23;;;;;;;15.05;6.35;;;10.60;90.00;;;;;;5093262;28;20039;-37
2021/05/27 11:40:51;;;;;;;13.25;6.63;;;10.80;90.00;;;;;;5092066;28;20032;-37
2021/05/27 11:43:24;;;;;;;15.07;7.50;;;10.90;88.80;;;;;;5092516;28;20024;-37
2021/05/27 11:45:52;;;;;;;13.27;6.40;;;11.00;89.30;;;;;;5092835;28;20068;-36
2021/05/27 11:48:30;;;;;;;16.60;6.13;;;11.30;88.50;;;;;;5092157;28;20024;-36
2021/05/27 11:51:02;;;;;;;10.63;5.75;;;11.30;88.20;;;;;;5091246;28;20024;-37
2021/05/27 11:53:56;;;;;;;11.85;6.38;;;11.50;86.90;;;;;;5092361;28;20016;-36
2021/05/27 11:56:31;;;;;;;12.60;6.85;;;11.50;86.00;;;;;;5092524;28;20131;-38
2021/05/27 11:58:57;;;;;;;13.95;6.93;;;11.30;86.90;;;;;;5092646;28;20054;-36
2021/05/27 12:01:25;;;;;;;15.32;7.60;;;11.40;86.90;;;;;;5092088;28;20028;-37
2021/05/27 12:04:07;;;;;;;19.92;7.38;;;11.30;86.70;;;;;;5092463;28;20484;-36
2021/05/27 12:07:06;;;;;;;13.60;7.47;;;11.50;86.70;;;;;;5092201;28;20134;-37
2021/05/27 12:09:36;;;;;;;12.50;7.45;;;11.40;86.50;;;;;;5080496;28;20036;-36
2021/05/27 12:12:24;;;;;;;15.15;6.82;;;11.30;86.70;;;;;;5092381;28;20020;-37
2021/05/27 12:14:53;;;;;;;13.57;7.70;;;11.30;87.20;;;;;;5091832;28;20055;-38
2021/05/27 12:17:29;;;;;;;16.92;8.40;;;11.30;87.10;;;;;;5092395;28;20058;-37
2021/05/27 12:20:03;;;;;;;11.32;6.25;;;11.30;86.90;;;;;;5092512;28;20032;-37
2021/05/27 12:22:54;;;;;;;14.85;6.82;;;11.10;88.20;;;;;;5094027;28;20032;-37
2021/05/27 12:25:23;;;;;;;14.95;6.63;;;11.10;89.80;;;;;;5092426;28;20073;-36
2021/05/27 12:27:51;;;;;;;13.10;6.10;;;10.90;90.00;;;;;;5092415;28;20036;-37
2021/05/27 12:30:29;;;;;;;13.50;6.35;;;10.80;89.50;;;;;;5092329;28;20027;-37
2021/05/27 12:32:56;;;;;;;16.20;7.80;;;10.90;89.10;;;;;;5090721;28;20020;-38
2021/05/27 12:35:23;;;;;;;13.75;7.45;;;11.10;89.10;;;;;;5092133;28;20031;-37
2021/05/27 12:37:50;;;;;;;18.63;8.15;;;11.20;88.70;;;;;;5093007;28;20083;-36
2021/05/27 12:40:23;;;;;;;22.55;8.52;;;11.30;87.90;;;;;;5092752;28;20029;-37
2021/05/27 12:42:50;;;;;;;11.45;6.75;;;11.40;87.90;;;;;;5091119;28;20036;-37
2021/05/27 12:45:24;;;;;;;28.92;7.38;;;11.30;87.60;;;;;;5092099;28;20020;-38
2021/05/27 12:48:03;;;;;;;11.25;5.90;;;11.40;87.20;;;;;;5092878;28;20030;-36
2021/05/27 12:50:28;;;;;;;17.15;6.32;;;11.80;87.10;;;;;;5092817;28;20020;-35
2021/05/27 12:52:54;;;;;;;16.98;7.20;;;11.80;87.10;;;;;;5096010;28;20476;-36
2021/05/27 12:55:28;;;;;;;18.23;6.78;;;11.60;87.70;;;;;;5096125;28;20052;-37
2021/05/27 12:57:56;;;;;;;17.98;6.60;;;11.30;88.80;;;;;;5094801;28;20024;-44
2021/05/27 13:00:23;;;;;;;17.42;9.45;;;11.20;89.40;;;;;;5096551;28;20430;-36
2021/05/27 13:03:06;;;;;;;17.42;7.35;;;11.30;89.60;;;;;;5096631;28;20103;-37
2021/05/27 13:05:32;;;;;;;21.50;8.35;;;11.30;90.00;;;;;;5095571;28;20028;-35
2021/05/27 13:08:03;;;;;;;11.35;7.85;;;11.10;90.30;;;;;;5093485;28;20020;-36
2021/05/27 13:10:37;;;;;;;24.02;7.72;;;11.20;90.10;;;;;;5095614;28;20099;-35
2021/05/27 13:13:05;;;;;;;18.17;8.85;;;11.30;89.70;;;;;;5095226;28;20069;-35